createdAt,value
2022-11-30T00:01:21.790Z,27.10
2022-11-30T00:03:49.116Z,24.60
2022-11-30T00:06:22.875Z,24.70
2022-11-30T00:08:52.361Z,23.77
2022-11-30T00:11:21.167Z,27.43
2022-11-30T00:13:48.642Z,23.07
2022-11-30T00:16:15.535Z,24.80
2022-11-30T00:18:42.330Z,26.07
2022-11-30T00:21:12.353Z,23.37
2022-11-30T00:23:41.546Z,23.03
2022-11-30T00:26:11.216Z,22.87
2022-11-30T00:28:39.388Z,17.97
2022-11-30T00:31:11.698Z,19.93
2022-11-30T00:33:39.333Z,22.37
2022-11-30T00:36:08.508Z,19.90
2022-11-30T00:38:36.040Z,19.67
2022-11-30T00:41:03.133Z,21.33
2022-11-30T00:43:30.385Z,19.63
2022-11-30T00:45:57.443Z,17.60
2022-11-30T00:48:24.402Z,17.33
2022-11-30T00:50:51.770Z,19.23
2022-11-30T00:53:19.396Z,16.13
2022-11-30T00:55:46.809Z,18.40
2022-11-30T00:58:14.679Z,17.13
2022-11-30T01:00:41.628Z,16.57
2022-11-30T01:03:08.522Z,19.93
2022-11-30T01:05:35.768Z,17.73
2022-11-30T01:08:06.154Z,17.10
2022-11-30T01:10:34.174Z,14.87
2022-11-30T01:13:01.195Z,19.93
2022-11-30T01:15:28.267Z,18.43
2022-11-30T01:17:55.143Z,15.20
2022-11-30T01:20:22.031Z,16.97
2022-11-30T01:22:48.722Z,14.07
2022-11-30T01:25:15.627Z,15.70
2022-11-30T01:27:42.369Z,15.03
2022-11-30T01:30:09.667Z,16.17
2022-11-30T01:32:36.350Z,17.30
2022-11-30T01:35:03.494Z,14.80
2022-11-30T01:37:30.384Z,17.60
2022-11-30T01:39:57.204Z,15.10
2022-11-30T01:42:24.519Z,14.13
2022-11-30T01:44:56.988Z,14.80
2022-11-30T01:47:41.055Z,14.37
2022-11-30T01:50:33.596Z,12.57
2022-11-30T01:53:03.403Z,13.43
2022-11-30T01:55:34.997Z,14.40
2022-11-30T01:58:22.841Z,13.17
2022-11-30T02:00:49.700Z,14.93
2022-11-30T02:03:32.467Z,13.90
2022-11-30T02:06:00.849Z,14.87
2022-11-30T02:08:28.419Z,13.77
2022-11-30T02:11:00.104Z,15.50
2022-11-30T02:13:51.277Z,13.03
2022-11-30T02:16:27.301Z,13.20
2022-11-30T02:19:03.180Z,16.10
2022-11-30T02:21:40.301Z,18.80
2022-11-30T02:24:42.595Z,15.17
2022-11-30T02:27:45.969Z,15.60
2022-11-30T02:30:19.230Z,14.73
2022-11-30T02:33:00.417Z,14.70
2022-11-30T02:35:30.722Z,16.30
2022-11-30T02:37:59.821Z,17.90
2022-11-30T02:40:26.627Z,14.33
2022-11-30T02:42:55.791Z,15.90
2022-11-30T02:45:31.371Z,15.00
2022-11-30T02:48:07.562Z,16.60
2022-11-30T02:50:45.442Z,15.67
2022-11-30T02:53:13.249Z,15.83
2022-11-30T02:55:40.201Z,20.80
2022-11-30T02:58:07.122Z,18.33
2022-11-30T03:00:33.890Z,16.33
2022-11-30T03:03:00.743Z,15.17
2022-11-30T03:05:27.607Z,14.67
2022-11-30T03:07:54.495Z,19.33
2022-11-30T03:10:21.329Z,15.23
2022-11-30T03:12:48.172Z,16.30
2022-11-30T03:15:15.117Z,15.53
2022-11-30T03:17:42.053Z,16.60
2022-11-30T03:20:09.627Z,14.80
2022-11-30T03:22:36.563Z,19.80
2022-11-30T03:25:03.573Z,16.43
2022-11-30T03:27:30.349Z,15.97
2022-11-30T03:29:57.166Z,18.73
2022-11-30T03:32:23.899Z,18.00
2022-11-30T03:34:50.627Z,16.30
2022-11-30T03:37:17.433Z,17.13
2022-11-30T03:39:44.299Z,19.00
2022-11-30T03:42:11.154Z,17.47
2022-11-30T03:44:37.969Z,16.70
2022-11-30T03:47:04.782Z,15.60
2022-11-30T03:49:31.545Z,19.07
2022-11-30T03:51:58.473Z,17.00
2022-11-30T03:54:25.266Z,18.37
2022-11-30T03:56:52.092Z,17.33
2022-11-30T03:59:18.908Z,17.13
2022-11-30T04:01:45.718Z,18.77
2022-11-30T04:04:12.781Z,17.20
2022-11-30T04:06:40.757Z,16.07
2022-11-30T04:09:07.683Z,16.77
2022-11-30T04:11:35.856Z,16.83
2022-11-30T04:14:02.781Z,15.30
2022-11-30T04:16:29.534Z,17.37
2022-11-30T04:18:56.398Z,16.50
2022-11-30T04:21:23.253Z,18.30
2022-11-30T04:23:50.060Z,15.87
2022-11-30T04:26:17.256Z,16.87
2022-11-30T04:28:44.022Z,16.13
2022-11-30T04:31:11.428Z,16.73
2022-11-30T04:33:38.398Z,17.20
2022-11-30T04:36:07.271Z,16.77
2022-11-30T04:38:34.255Z,14.77
2022-11-30T04:41:07.776Z,16.70
2022-11-30T04:43:34.588Z,17.63
2022-11-30T04:46:01.388Z,18.90
2022-11-30T04:48:28.154Z,19.40
2022-11-30T04:50:59.679Z,19.00
2022-11-30T04:53:26.507Z,18.40
2022-11-30T04:55:53.193Z,17.57
2022-11-30T04:58:20.031Z,15.17
2022-11-30T05:00:46.917Z,17.53
2022-11-30T05:03:13.677Z,13.43
2022-11-30T05:05:40.391Z,15.47
2022-11-30T05:08:07.191Z,17.37
2022-11-30T05:10:34.055Z,15.40
2022-11-30T05:13:01.085Z,18.07
2022-11-30T05:15:27.916Z,15.80
2022-11-30T05:17:58.855Z,13.40
2022-11-30T05:20:25.681Z,15.07
2022-11-30T05:22:52.464Z,13.93
2022-11-30T05:25:19.258Z,13.67
2022-11-30T05:27:45.982Z,14.87
2022-11-30T05:30:13.288Z,15.20
2022-11-30T05:32:40.007Z,17.17
2022-11-30T05:35:07.056Z,17.43
2022-11-30T05:37:33.860Z,21.47
2022-11-30T05:40:00.612Z,17.67
2022-11-30T05:42:28.208Z,18.73
2022-11-30T05:44:54.906Z,16.57
2022-11-30T05:47:21.675Z,19.43
2022-11-30T05:49:48.399Z,18.53
2022-11-30T05:52:15.158Z,18.97
2022-11-30T05:54:41.999Z,19.00
2022-11-30T05:57:08.757Z,21.87
2022-11-30T05:59:35.490Z,24.33
2022-11-30T06:02:02.348Z,22.33
2022-11-30T06:04:29.236Z,20.80
2022-11-30T06:06:56.058Z,19.47
2022-11-30T06:09:23.136Z,20.97
2022-11-30T06:11:50.258Z,18.60
2022-11-30T06:14:17.435Z,21.70
2022-11-30T06:16:44.294Z,21.37
2022-11-30T06:19:11.030Z,18.20
2022-11-30T06:21:37.702Z,19.37
2022-11-30T06:24:04.642Z,20.20
2022-11-30T06:26:31.361Z,19.43
2022-11-30T06:28:58.099Z,19.23
2022-11-30T06:31:24.887Z,20.40
2022-11-30T06:33:51.801Z,21.13
2022-11-30T06:36:23.017Z,20.90
2022-11-30T06:38:50.161Z,19.30
2022-11-30T06:41:17.514Z,19.30
2022-11-30T06:43:44.300Z,19.87
2022-11-30T06:46:11.389Z,19.63
2022-11-30T06:48:38.633Z,18.43
2022-11-30T06:51:07.399Z,19.97
2022-11-30T06:53:34.449Z,18.77
2022-11-30T06:56:09.594Z,20.20
2022-11-30T06:58:40.979Z,19.77
2022-11-30T07:01:10.656Z,19.57
2022-11-30T07:03:37.628Z,16.80
2022-11-30T07:06:12.687Z,20.93
2022-11-30T07:08:40.689Z,19.83
2022-11-30T07:11:08.603Z,21.93
2022-11-30T07:13:35.852Z,20.23
2022-11-30T07:16:08.308Z,18.87
2022-11-30T07:18:35.686Z,19.37
2022-11-30T07:21:04.228Z,18.67
2022-11-30T07:23:55.867Z,19.13
2022-11-30T07:26:24.281Z,22.30
2022-11-30T07:28:55.221Z,23.27
2022-11-30T07:31:23.751Z,22.30
2022-11-30T07:33:51.194Z,24.10
2022-11-30T07:36:20.302Z,21.17
2022-11-30T07:38:47.589Z,20.57
2022-11-30T07:41:14.975Z,22.73
2022-11-30T07:43:41.786Z,22.07
2022-11-30T07:46:11.502Z,21.23
2022-11-30T07:48:38.873Z,19.00
2022-11-30T07:51:13.884Z,20.30
2022-11-30T07:53:40.879Z,21.27
2022-11-30T07:56:13.561Z,23.47
2022-11-30T07:58:41.544Z,22.13
2022-11-30T08:01:11.247Z,18.13
2022-11-30T08:03:38.637Z,19.80
2022-11-30T08:06:11.608Z,19.10
2022-11-30T08:08:41.208Z,20.77
2022-11-30T08:11:10.248Z,19.77
2022-11-30T08:13:37.272Z,19.03
2022-11-30T08:16:06.630Z,22.37
2022-11-30T08:18:33.753Z,18.53
2022-11-30T08:21:02.410Z,22.07
2022-11-30T08:23:30.220Z,22.53
2022-11-30T08:25:57.061Z,21.97
2022-11-30T08:28:23.888Z,19.97
2022-11-30T08:30:50.696Z,18.67
2022-11-30T08:33:17.468Z,21.10
2022-11-30T08:35:44.247Z,24.67
2022-11-30T08:38:10.974Z,22.00
2022-11-30T08:40:37.759Z,20.80
2022-11-30T08:43:04.591Z,23.67
2022-11-30T08:45:31.302Z,24.17
2022-11-30T08:47:57.994Z,21.20
2022-11-30T08:50:24.851Z,20.47
2022-11-30T08:52:54.549Z,22.23
2022-11-30T08:55:21.377Z,19.97
2022-11-30T08:57:48.206Z,22.53
2022-11-30T09:00:16.087Z,20.77
2022-11-30T09:02:42.965Z,21.50
2022-11-30T09:05:09.849Z,21.47
2022-11-30T09:07:36.610Z,19.63
2022-11-30T09:10:03.762Z,23.83
2022-11-30T09:12:30.511Z,24.03
2022-11-30T09:14:58.471Z,21.93
2022-11-30T09:17:26.032Z,30.63
2022-11-30T09:19:52.860Z,22.43
2022-11-30T09:22:19.711Z,22.87
2022-11-30T09:24:46.675Z,23.57
2022-11-30T09:27:13.648Z,23.37
2022-11-30T09:29:40.543Z,23.07
2022-11-30T09:32:07.317Z,24.13
2022-11-30T09:34:34.073Z,20.30
2022-11-30T09:37:00.974Z,21.67
2022-11-30T09:39:27.814Z,22.63
2022-11-30T09:42:12.914Z,22.00
2022-11-30T09:45:30.020Z,24.10
2022-11-30T09:48:05.663Z,20.23
2022-11-30T09:50:37.449Z,22.77
2022-11-30T09:53:08.905Z,23.33
2022-11-30T09:55:42.639Z,23.67
2022-11-30T09:58:32.813Z,23.47
2022-11-30T10:01:02.436Z,22.60
2022-11-30T10:03:34.004Z,20.73
2022-11-30T10:06:30.348Z,20.27
2022-11-30T10:09:27.232Z,23.10
2022-11-30T10:12:09.286Z,23.43
2022-11-30T10:14:38.825Z,21.17
2022-11-30T10:17:17.450Z,20.73
2022-11-30T10:19:53.891Z,19.57
2022-11-30T10:22:49.303Z,22.43
2022-11-30T10:25:36.357Z,21.33
2022-11-30T10:28:48.156Z,21.60
2022-11-30T10:31:16.334Z,23.83
2022-11-30T10:33:51.702Z,22.37
2022-11-30T10:36:39.682Z,20.27
2022-11-30T10:39:17.797Z,21.10
2022-11-30T10:41:57.257Z,18.33
2022-11-30T10:44:40.003Z,20.17
2022-11-30T10:47:28.885Z,19.77
2022-11-30T10:49:55.969Z,19.10
2022-11-30T10:52:29.012Z,23.90
2022-11-30T10:55:02.234Z,24.20
2022-11-30T10:57:32.203Z,20.77
2022-11-30T11:00:01.012Z,18.37
2022-11-30T11:02:45.981Z,19.30
2022-11-30T11:05:18.281Z,17.67
2022-11-30T11:08:06.215Z,18.57
2022-11-30T11:10:39.397Z,18.53
2022-11-30T11:13:06.579Z,18.87
2022-11-30T11:15:35.094Z,17.27
2022-11-30T11:18:32.850Z,18.73
2022-11-30T11:21:06.326Z,19.20
2022-11-30T11:23:35.214Z,22.43
2022-11-30T11:26:02.300Z,16.13
2022-11-30T11:28:29.439Z,20.90
2022-11-30T11:30:57.574Z,18.63
2022-11-30T11:33:26.939Z,18.30
2022-11-30T11:36:07.089Z,21.17
2022-11-30T11:38:45.123Z,18.87
2022-11-30T11:41:26.123Z,20.53
2022-11-30T11:44:11.055Z,21.43
2022-11-30T11:46:52.627Z,20.40
2022-11-30T11:49:23.984Z,19.27
2022-11-30T11:52:20.372Z,20.80
2022-11-30T11:54:56.565Z,17.70
2022-11-30T11:57:45.032Z,20.30
2022-11-30T12:00:16.790Z,20.67
2022-11-30T12:03:07.801Z,18.63
2022-11-30T12:05:42.897Z,21.20
2022-11-30T12:08:50.241Z,17.43
2022-11-30T12:11:47.561Z,17.83
2022-11-30T12:14:16.647Z,20.37
2022-11-30T12:17:02.347Z,18.80
2022-11-30T12:19:34.670Z,16.83
2022-11-30T12:22:26.735Z,17.80
2022-11-30T12:25:17.021Z,17.23
2022-11-30T12:28:01.210Z,21.63
2022-11-30T12:30:46.473Z,18.07
2022-11-30T12:33:37.885Z,23.30
2022-11-30T12:36:18.579Z,17.77
2022-11-30T12:39:08.441Z,18.97
2022-11-30T12:41:42.061Z,17.43
2022-11-30T12:44:14.627Z,21.17
2022-11-30T12:46:49.652Z,17.10
2022-11-30T12:49:22.527Z,21.37
2022-11-30T12:51:57.233Z,19.67
2022-11-30T12:54:56.805Z,22.43
2022-11-30T12:57:35.185Z,19.57
2022-11-30T13:00:22.107Z,20.70
2022-11-30T13:02:58.163Z,21.07
2022-11-30T13:05:33.073Z,22.27
2022-11-30T13:08:20.655Z,22.10
2022-11-30T13:10:53.099Z,21.37
2022-11-30T13:13:25.694Z,21.50
2022-11-30T13:15:52.740Z,25.70
2022-11-30T13:18:22.096Z,19.70
2022-11-30T13:20:48.887Z,23.40
2022-11-30T13:23:39.293Z,21.00
2022-11-30T13:26:31.050Z,20.37
2022-11-30T13:28:57.725Z,22.87
2022-11-30T13:31:39.143Z,19.40
2022-11-30T13:34:32.785Z,21.23
2022-11-30T13:37:17.251Z,20.60
2022-11-30T13:39:53.085Z,19.80
2022-11-30T13:42:34.862Z,26.47
2022-11-30T13:45:31.153Z,18.70
2022-11-30T13:47:59.573Z,19.63
2022-11-30T13:50:32.211Z,20.30
2022-11-30T13:52:59.318Z,18.33
2022-11-30T13:55:46.020Z,21.50
2022-11-30T13:58:15.588Z,20.67
2022-11-30T14:00:42.691Z,19.73
2022-11-30T14:03:21.484Z,21.97
2022-11-30T14:05:59.880Z,23.43
2022-11-30T14:08:38.276Z,21.17
2022-11-30T14:11:40.483Z,22.73
2022-11-30T14:14:45.603Z,19.80
2022-11-30T14:17:26.737Z,20.10
2022-11-30T14:19:59.326Z,21.47
2022-11-30T14:22:29.371Z,19.53
2022-11-30T14:24:56.505Z,17.73
2022-11-30T14:27:26.129Z,20.30
2022-11-30T14:29:59.305Z,22.43
2022-11-30T14:32:30.327Z,16.90
2022-11-30T14:35:11.714Z,20.30
2022-11-30T14:37:52.844Z,19.83
2022-11-30T14:40:21.839Z,18.87
2022-11-30T14:43:00.722Z,17.63
2022-11-30T14:45:30.295Z,18.50
2022-11-30T14:48:10.558Z,17.67
2022-11-30T14:50:42.644Z,20.93
2022-11-30T14:53:26.887Z,17.83
2022-11-30T14:56:14.521Z,19.40
2022-11-30T14:58:53.070Z,19.07
2022-11-30T15:01:26.533Z,17.80
2022-11-30T15:03:57.011Z,19.13
2022-11-30T15:06:32.192Z,20.53
2022-11-30T15:09:01.525Z,18.07
2022-11-30T15:11:28.791Z,19.73
2022-11-30T15:14:06.517Z,19.47
2022-11-30T15:16:33.379Z,18.77
2022-11-30T15:19:15.644Z,17.23
2022-11-30T15:21:46.586Z,20.27
2022-11-30T15:24:13.617Z,18.47
2022-11-30T15:27:12.740Z,18.67
2022-11-30T15:29:45.092Z,17.97
2022-11-30T15:32:23.112Z,19.37
2022-11-30T15:34:56.100Z,18.77
2022-11-30T15:37:50.267Z,18.40
2022-11-30T15:40:28.983Z,17.80
2022-11-30T15:42:56.028Z,17.73
2022-11-30T15:45:28.693Z,18.50
2022-11-30T15:47:57.617Z,19.00
2022-11-30T15:50:28.384Z,17.70
2022-11-30T15:53:01.847Z,18.93
2022-11-30T15:55:48.995Z,16.83
2022-11-30T15:58:30.593Z,18.97
2022-11-30T16:01:06.273Z,14.07
2022-11-30T16:03:36.213Z,18.67
2022-11-30T16:06:05.227Z,17.60
2022-11-30T16:08:32.667Z,16.30
2022-11-30T16:11:03.212Z,18.87
2022-11-30T16:13:34.740Z,19.63
2022-11-30T16:16:01.731Z,14.83
2022-11-30T16:18:28.683Z,15.50
2022-11-30T16:20:59.362Z,16.37
2022-11-30T16:23:27.221Z,17.30
2022-11-30T16:25:54.381Z,15.83
2022-11-30T16:28:22.533Z,16.97
2022-11-30T16:30:49.983Z,15.57
2022-11-30T16:33:19.431Z,18.80
2022-11-30T16:35:58.161Z,16.10
2022-11-30T16:38:25.620Z,15.70
2022-11-30T16:40:55.807Z,16.90
2022-11-30T16:43:23.605Z,15.93
2022-11-30T16:45:51.056Z,16.37
2022-11-30T16:48:19.125Z,16.80
2022-11-30T16:50:45.925Z,21.13
2022-11-30T16:53:16.986Z,15.53
2022-11-30T16:55:44.569Z,16.80
2022-11-30T16:58:11.312Z,17.47
2022-11-30T17:00:40.094Z,15.80
2022-11-30T17:03:20.586Z,17.47
2022-11-30T17:05:47.695Z,19.27
2022-11-30T17:08:14.478Z,17.70
2022-11-30T17:10:42.276Z,19.73
2022-11-30T17:13:15.722Z,18.20
2022-11-30T17:15:42.589Z,18.33
2022-11-30T17:18:09.583Z,20.90
2022-11-30T17:20:37.851Z,18.50
2022-11-30T17:23:05.867Z,18.07
2022-11-30T17:25:32.983Z,18.63
2022-11-30T17:28:00.230Z,20.10
2022-11-30T17:30:27.903Z,18.73
2022-11-30T17:32:54.836Z,18.37
2022-11-30T17:35:21.667Z,20.00
2022-11-30T17:37:48.433Z,20.90
2022-11-30T17:40:18.238Z,22.13
2022-11-30T17:42:44.998Z,19.93
2022-11-30T17:45:11.985Z,21.23
2022-11-30T17:47:38.958Z,20.33
2022-11-30T17:50:07.496Z,21.70
2022-11-30T17:52:34.319Z,19.70
2022-11-30T17:55:01.167Z,19.07
2022-11-30T17:57:27.985Z,20.07
2022-11-30T17:59:54.906Z,19.77
2022-11-30T18:02:22.014Z,19.53
2022-11-30T18:04:48.995Z,20.37
2022-11-30T18:07:16.575Z,18.83
2022-11-30T18:09:43.465Z,19.97
2022-11-30T18:12:10.709Z,19.43
2022-11-30T18:14:37.492Z,22.53
2022-11-30T18:17:04.676Z,20.13
2022-11-30T18:19:31.539Z,20.90
2022-11-30T18:21:58.337Z,19.20
2022-11-30T18:24:25.861Z,18.50
2022-11-30T18:26:53.199Z,19.43
2022-11-30T18:29:20.044Z,23.07
2022-11-30T18:31:48.530Z,24.10
2022-11-30T18:34:15.511Z,20.90
2022-11-30T18:36:42.522Z,19.70
2022-11-30T18:39:09.647Z,21.03
2022-11-30T18:41:36.691Z,20.33
2022-11-30T18:44:03.569Z,18.47
2022-11-30T18:46:30.440Z,22.53
2022-11-30T18:48:59.123Z,19.83
2022-11-30T18:51:28.153Z,19.37
2022-11-30T18:53:58.467Z,20.50
2022-11-30T18:56:27.699Z,21.53
2022-11-30T18:59:04.413Z,23.53
2022-11-30T19:01:31.635Z,20.10
2022-11-30T19:04:00.681Z,24.90
2022-11-30T19:06:29.803Z,23.33
2022-11-30T19:08:57.158Z,22.13
2022-11-30T19:11:24.563Z,22.97
2022-11-30T19:13:55.349Z,21.50
2022-11-30T19:16:22.297Z,24.23
2022-11-30T19:18:49.184Z,18.07
2022-11-30T19:21:17.928Z,21.90
2022-11-30T19:23:45.293Z,21.87
2022-11-30T19:26:13.748Z,21.03
2022-11-30T19:28:42.099Z,20.00
2022-11-30T19:31:19.743Z,23.63
2022-11-30T19:33:48.990Z,19.63
2022-11-30T19:36:18.757Z,23.00
2022-11-30T19:38:45.572Z,21.73
2022-11-30T19:41:14.892Z,22.87
2022-11-30T19:43:43.530Z,22.60
2022-11-30T19:46:17.532Z,21.37
2022-11-30T19:48:44.878Z,21.13
2022-11-30T19:51:18.059Z,22.37
2022-11-30T19:53:45.524Z,23.50
2022-11-30T19:56:15.444Z,24.53
2022-11-30T19:58:44.125Z,23.57
2022-11-30T20:01:15.038Z,23.23
2022-11-30T20:03:42.313Z,23.60
2022-11-30T20:06:09.145Z,25.60
2022-11-30T20:08:38.517Z,24.10
2022-11-30T20:11:09.214Z,23.73
2022-11-30T20:13:36.394Z,20.63
2022-11-30T20:16:11.858Z,23.80
2022-11-30T20:18:44.170Z,25.43
2022-11-30T20:21:15.394Z,25.37
2022-11-30T20:23:43.197Z,27.20
2022-11-30T20:26:13.817Z,24.10
2022-11-30T20:28:40.939Z,24.80
2022-11-30T20:31:09.615Z,23.47
2022-11-30T20:33:37.381Z,24.83
2022-11-30T20:36:06.388Z,26.93
2022-11-30T20:38:33.979Z,24.20
2022-11-30T20:41:01.175Z,23.83
2022-11-30T20:43:28.349Z,26.40
2022-11-30T20:45:55.205Z,28.00
2022-11-30T20:48:22.242Z,25.73
2022-11-30T20:51:14.158Z,25.70
2022-11-30T20:53:35.989Z,23.87
2022-11-30T20:56:02.838Z,23.07
2022-11-30T20:58:29.673Z,26.23
2022-11-30T21:00:56.728Z,24.07
2022-11-30T21:03:23.473Z,23.47
2022-11-30T21:05:50.367Z,24.17
2022-11-30T21:08:17.179Z,22.83
2022-11-30T21:10:43.973Z,22.90
2022-11-30T21:13:10.802Z,23.67
2022-11-30T21:15:37.686Z,22.63
2022-11-30T21:18:04.704Z,24.97
2022-11-30T21:20:31.510Z,26.60
2022-11-30T21:22:58.412Z,25.23
2022-11-30T21:25:25.086Z,25.63
2022-11-30T21:27:52.522Z,27.07
2022-11-30T21:30:19.426Z,25.80
2022-11-30T21:32:46.237Z,24.67
2022-11-30T21:35:13.746Z,24.77
2022-11-30T21:37:40.604Z,30.37
2022-11-30T21:40:08.230Z,28.40
2022-11-30T21:42:34.949Z,24.20
2022-11-30T21:45:01.792Z,24.47
2022-11-30T21:47:31.840Z,24.33
2022-11-30T21:49:59.681Z,23.27
2022-11-30T21:52:26.733Z,23.30
2022-11-30T21:54:53.946Z,24.67
2022-11-30T21:57:23.515Z,24.60
2022-11-30T21:59:50.654Z,22.13
2022-11-30T22:02:17.667Z,30.23
2022-11-30T22:04:44.458Z,27.23
2022-11-30T22:07:14.336Z,23.27
2022-11-30T22:09:41.251Z,24.73
2022-11-30T22:12:08.051Z,23.40
2022-11-30T22:14:36.344Z,24.27
2022-11-30T22:17:03.113Z,26.67
2022-11-30T22:19:29.861Z,26.43
2022-11-30T22:21:56.600Z,27.13
2022-11-30T22:24:23.521Z,23.90
2022-11-30T22:26:50.258Z,24.73
2022-11-30T22:29:20.037Z,24.57
2022-11-30T22:31:49.030Z,23.00
2022-11-30T22:34:16.104Z,26.03
2022-11-30T22:36:44.400Z,23.00
2022-11-30T22:39:20.317Z,27.73
2022-11-30T22:41:54.546Z,24.60
2022-11-30T22:44:21.781Z,21.00
2022-11-30T22:46:48.916Z,23.33
2022-11-30T22:49:20.661Z,20.97
2022-11-30T22:51:48.820Z,21.87
2022-11-30T22:54:15.632Z,23.57
2022-11-30T22:56:42.558Z,20.50
2022-11-30T22:59:13.518Z,25.87
2022-11-30T23:01:44.845Z,23.93
2022-11-30T23:04:14.530Z,23.60
2022-11-30T23:06:42.811Z,24.50
2022-11-30T23:09:13.103Z,26.63
2022-11-30T23:11:40.346Z,22.47
2022-11-30T23:14:08.293Z,24.57
2022-11-30T23:16:36.269Z,29.57
2022-11-30T23:19:03.197Z,23.43
2022-11-30T23:21:38.908Z,24.30
2022-11-30T23:24:09.156Z,22.27
2022-11-30T23:26:37.807Z,26.97
2022-11-30T23:29:07.254Z,27.80
2022-11-30T23:31:39.272Z,23.27
2022-11-30T23:34:12.161Z,26.43
2022-11-30T23:36:39.373Z,24.47
2022-11-30T23:39:14.843Z,26.47
2022-11-30T23:41:41.829Z,27.70
2022-11-30T23:44:09.906Z,27.47
2022-11-30T23:46:37.429Z,24.13
2022-11-30T23:49:04.380Z,23.40
2022-11-30T23:51:31.229Z,25.60
2022-11-30T23:53:58.018Z,27.23
2022-11-30T23:56:25.169Z,28.03
2022-11-30T23:58:52.636Z,26.93
